sensor_id;sensor_type;location;lat;lon;timestamp;pressure;altitude;pressure_sealevel;temperature;humidity
33191;BME280;19554;42.652;23.364;2023-04-23T00:02:08;94549.09;;;11.29;56.61
33191;BME280;19554;42.652;23.364;2023-04-23T00:04:37;94591.34;;;11.59;56.51
33191;BME280;19554;42.652;23.364;2023-04-23T00:07:03;94465.78;;;10.80;56.81
33191;BME280;19554;42.652;23.364;2023-04-23T00:09:30;94589.16;;;11.61;56.76
33191;BME280;19554;42.652;23.364;2023-04-23T00:11:59;94591.81;;;11.61;56.36
33191;BME280;19554;42.652;23.364;2023-04-23T00:14:26;94591.94;;;11.56;56.49
33191;BME280;19554;42.652;23.364;2023-04-23T00:16:51;94585.59;;;11.52;57.09
33191;BME280;19554;42.652;23.364;2023-04-23T00:19:17;94515.69;;;11.12;57.16
33191;BME280;19554;42.652;23.364;2023-04-23T00:21:42;94515.78;;;11.07;57.16
33191;BME280;19554;42.652;23.364;2023-04-23T00:24:08;94585.16;;;11.45;57.49
33191;BME280;19554;42.652;23.364;2023-04-23T00:26:33;94592.00;;;11.51;57.36
33191;BME280;19554;42.652;23.364;2023-04-23T00:28:58;94591.22;;;11.51;57.70
33191;BME280;19554;42.652;23.364;2023-04-23T00:31:24;94587.75;;;11.50;57.63
33191;BME280;19554;42.652;23.364;2023-04-23T00:33:51;94586.97;;;11.50;56.49
33191;BME280;19554;42.652;23.364;2023-04-23T00:36:17;94583.19;;;11.51;56.22
33191;BME280;19554;42.652;23.364;2023-04-23T00:38:42;94544.91;;;11.23;55.64
33191;BME280;19554;42.652;23.364;2023-04-23T00:41:08;94579.91;;;11.40;55.76
33191;BME280;19554;42.652;23.364;2023-04-23T00:43:33;94554.03;;;11.22;55.54
33191;BME280;19554;42.652;23.364;2023-04-23T00:45:59;94580.59;;;11.32;55.53
33191;BME280;19554;42.652;23.364;2023-04-23T00:48:24;94582.75;;;11.30;55.65
33191;BME280;19554;42.652;23.364;2023-04-23T00:50:57;94579.56;;;11.28;55.92
33191;BME280;19554;42.652;23.364;2023-04-23T00:53:23;94568.97;;;11.23;55.60
33191;BME280;19554;42.652;23.364;2023-04-23T00:55:49;94568.44;;;11.21;55.37
33191;BME280;19554;42.652;23.364;2023-04-23T00:58:15;94562.84;;;11.03;55.26
33191;BME280;19554;42.652;23.364;2023-04-23T01:00:44;94578.50;;;11.10;55.59
33191;BME280;19554;42.652;23.364;2023-04-23T01:03:10;94574.31;;;11.04;55.67
33191;BME280;19554;42.652;23.364;2023-04-23T01:05:38;94587.56;;;10.95;56.35
33191;BME280;19554;42.652;23.364;2023-04-23T01:08:05;94578.81;;;10.89;56.30
33191;BME280;19554;42.652;23.364;2023-04-23T01:10:30;94478.16;;;10.14;56.60
33191;BME280;19554;42.652;23.364;2023-04-23T01:12:57;94564.41;;;10.72;56.77
33191;BME280;19554;42.652;23.364;2023-04-23T01:15:23;94582.16;;;10.81;56.75
33191;BME280;19554;42.652;23.364;2023-04-23T01:17:48;94575.00;;;10.77;56.07
33191;BME280;19554;42.652;23.364;2023-04-23T01:20:13;94544.84;;;10.57;56.20
33191;BME280;19554;42.652;23.364;2023-04-23T01:22:39;94578.97;;;10.79;56.10
33191;BME280;19554;42.652;23.364;2023-04-23T01:25:05;94578.19;;;10.79;55.72
33191;BME280;19554;42.652;23.364;2023-04-23T01:27:32;94582.50;;;10.75;55.23
33191;BME280;19554;42.652;23.364;2023-04-23T01:30:01;94582.50;;;10.75;55.43
33191;BME280;19554;42.652;23.364;2023-04-23T01:32:27;94576.44;;;10.69;56.10
33191;BME280;19554;42.652;23.364;2023-04-23T01:34:55;94584.22;;;10.65;55.93
33191;BME280;19554;42.652;23.364;2023-04-23T01:37:22;94580.03;;;10.59;56.42
33191;BME280;19554;42.652;23.364;2023-04-23T01:39:48;94547.06;;;10.31;56.94
33191;BME280;19554;42.652;23.364;2023-04-23T01:42:13;94593.47;;;10.54;57.17
33191;BME280;19554;42.652;23.364;2023-04-23T01:44:39;94593.25;;;10.51;57.10
33191;BME280;19554;42.652;23.364;2023-04-23T01:47:04;94582.34;;;10.47;57.43
33191;BME280;19554;42.652;23.364;2023-04-23T01:49:30;94557.50;;;10.28;58.00
33191;BME280;19554;42.652;23.364;2023-04-23T01:51:55;94574.75;;;10.35;57.62
33191;BME280;19554;42.652;23.364;2023-04-23T01:54:21;94594.56;;;10.53;58.26
33191;BME280;19554;42.652;23.364;2023-04-23T01:56:46;94593.47;;;10.54;58.95
33191;BME280;19554;42.652;23.364;2023-04-23T01:59:12;94595.03;;;10.55;59.06
33191;BME280;19554;42.652;23.364;2023-04-23T02:01:44;94602.47;;;10.58;58.73
33191;BME280;19554;42.652;23.364;2023-04-23T02:04:12;94605.72;;;10.55;58.26
33191;BME280;19554;42.652;23.364;2023-04-23T02:06:39;94602.56;;;10.53;59.02
33191;BME280;19554;42.652;23.364;2023-04-23T02:09:04;94505.31;;;9.97;58.16
33191;BME280;19554;42.652;23.364;2023-04-23T02:11:30;94600.91;;;10.57;57.83
33191;BME280;19554;42.652;23.364;2023-04-23T02:13:55;94552.91;;;10.33;57.80
33191;BME280;19554;42.652;23.364;2023-04-23T02:16:20;94592.44;;;10.50;57.20
33191;BME280;19554;42.652;23.364;2023-04-23T02:18:49;94600.72;;;10.49;57.03
33191;BME280;19554;42.652;23.364;2023-04-23T02:21:14;94611.13;;;10.50;57.72
33191;BME280;19554;42.652;23.364;2023-04-23T02:23:40;94606.28;;;10.52;57.85
33191;BME280;19554;42.652;23.364;2023-04-23T02:26:05;94594.38;;;10.44;57.70
33191;BME280;19554;42.652;23.364;2023-04-23T02:28:32;94591.44;;;10.46;57.74
33191;BME280;19554;42.652;23.364;2023-04-23T02:30:58;94600.94;;;10.52;57.80
33191;BME280;19554;42.652;23.364;2023-04-23T02:33:23;94591.66;;;10.50;57.76
33191;BME280;19554;42.652;23.364;2023-04-23T02:35:50;94539.25;;;10.16;58.00
33191;BME280;19554;42.652;23.364;2023-04-23T02:38:15;94601.03;;;10.47;58.73
33191;BME280;19554;42.652;23.364;2023-04-23T02:40:41;94597.84;;;10.45;59.36
33191;BME280;19554;42.652;23.364;2023-04-23T02:43:06;94563.69;;;10.23;60.06
33191;BME280;19554;42.652;23.364;2023-04-23T02:45:31;94583.06;;;10.34;60.53
33191;BME280;19554;42.652;23.364;2023-04-23T02:47:57;94594.94;;;10.41;60.11
33191;BME280;19554;42.652;23.364;2023-04-23T02:50:22;94595.69;;;10.47;59.75
33191;BME280;19554;42.652;23.364;2023-04-23T02:52:48;94594.59;;;10.48;59.54
33191;BME280;19554;42.652;23.364;2023-04-23T02:55:14;94593.03;;;10.47;59.30
33191;BME280;19554;42.652;23.364;2023-04-23T02:57:39;94601.03;;;10.47;58.42
33191;BME280;19554;42.652;23.364;2023-04-23T03:00:05;94595.31;;;10.35;58.07
33191;BME280;19554;42.652;23.364;2023-04-23T03:02:31;94599.63;;;10.31;57.63
33191;BME280;19554;42.652;23.364;2023-04-23T03:04:57;94598.69;;;10.16;58.14
33191;BME280;19554;42.652;23.364;2023-04-23T03:07:22;94608.81;;;10.19;58.99
33191;BME280;19554;42.652;23.364;2023-04-23T03:09:48;94604.03;;;10.16;58.92
33191;BME280;19554;42.652;23.364;2023-04-23T03:12:13;94539.16;;;9.78;59.15
33191;BME280;19554;42.652;23.364;2023-04-23T03:14:38;94608.81;;;10.19;57.73
33191;BME280;19554;42.652;23.364;2023-04-23T03:17:04;94607.78;;;10.15;57.84
33191;BME280;19554;42.652;23.364;2023-04-23T03:19:30;94592.47;;;10.02;57.61
33191;BME280;19554;42.652;23.364;2023-04-23T03:21:56;94619.59;;;10.09;58.14
33191;BME280;19554;42.652;23.364;2023-04-23T03:24:21;94595.28;;;9.87;57.32
33191;BME280;19554;42.652;23.364;2023-04-23T03:26:46;94622.06;;;10.01;58.27
33191;BME280;19554;42.652;23.364;2023-04-23T03:29:12;94618.09;;;9.98;58.34
33191;BME280;19554;42.652;23.364;2023-04-23T03:31:37;94623.50;;;9.93;58.13
33191;BME280;19554;42.652;23.364;2023-04-23T03:34:03;94578.47;;;9.62;58.56
33191;BME280;19554;42.652;23.364;2023-04-23T03:36:28;94626.78;;;9.85;58.96
33191;BME280;19554;42.652;23.364;2023-04-23T03:38:54;94579.66;;;9.51;59.51
33191;BME280;19554;42.652;23.364;2023-04-23T03:41:19;94628.16;;;9.77;58.65
33191;BME280;19554;42.652;23.364;2023-04-23T03:43:44;94622.59;;;9.73;58.77
33191;BME280;19554;42.652;23.364;2023-04-23T03:46:10;94627.94;;;9.73;59.61
33191;BME280;19554;42.652;23.364;2023-04-23T03:48:35;94625.28;;;9.73;59.45
33191;BME280;19554;42.652;23.364;2023-04-23T03:51:01;94629.53;;;9.75;59.72
33191;BME280;19554;42.652;23.364;2023-04-23T03:53:26;94629.53;;;9.75;60.12
33191;BME280;19554;42.652;23.364;2023-04-23T03:55:52;94632.22;;;9.75;60.86
33191;BME280;19554;42.652;23.364;2023-04-23T03:58:17;94624.78;;;9.71;60.04
33191;BME280;19554;42.652;23.364;2023-04-23T04:00:43;94630.34;;;9.75;60.21
33191;BME280;19554;42.652;23.364;2023-04-23T04:03:08;94631.59;;;9.83;60.12
33191;BME280;19554;42.652;23.364;2023-04-23T04:05:34;94640.56;;;9.92;60.22
33191;BME280;19554;42.652;23.364;2023-04-23T04:07:59;94545.69;;;9.38;59.72
33191;BME280;19554;42.652;23.364;2023-04-23T04:10:26;94555.69;;;9.51;60.01
33191;BME280;19554;42.652;23.364;2023-04-23T04:12:51;94638.28;;;10.04;60.18
33191;BME280;19554;42.652;23.364;2023-04-23T04:15:17;94643.63;;;10.04;60.91
33191;BME280;19554;42.652;23.364;2023-04-23T04:17:44;94640.69;;;10.06;61.32
33191;BME280;19554;42.652;23.364;2023-04-23T04:20:10;94648.25;;;10.23;60.75
33191;BME280;19554;42.652;23.364;2023-04-23T04:22:36;94650.50;;;10.39;60.00
33191;BME280;19554;42.652;23.364;2023-04-23T04:25:01;94644.66;;;10.56;58.95
33191;BME280;19554;42.652;23.364;2023-04-23T04:27:27;94576.13;;;10.33;59.13
33191;BME280;19554;42.652;23.364;2023-04-23T04:29:52;94616.56;;;10.83;58.22
33191;BME280;19554;42.652;23.364;2023-04-23T04:32:18;94652.88;;;11.22;57.36
33191;BME280;19554;42.652;23.364;2023-04-23T04:34:43;94654.47;;;11.55;57.18
33191;BME280;19554;42.652;23.364;2023-04-23T04:37:08;94648.41;;;11.82;56.48
33191;BME280;19554;42.652;23.364;2023-04-23T04:39:35;94652.66;;;12.02;55.85
33191;BME280;19554;42.652;23.364;2023-04-23T04:42:01;94651.69;;;12.26;55.30
33191;BME280;19554;42.652;23.364;2023-04-23T04:44:27;94658.63;;;12.54;54.54
33191;BME280;19554;42.652;23.364;2023-04-23T04:46:53;94584.06;;;12.34;54.03
33191;BME280;19554;42.652;23.364;2023-04-23T04:49:18;94654.00;;;13.10;53.60
33191;BME280;19554;42.652;23.364;2023-04-23T04:51:44;94665.56;;;12.83;54.66
33191;BME280;19554;42.652;23.364;2023-04-23T04:54:09;94659.25;;;12.51;55.38
33191;BME280;19554;42.652;23.364;2023-04-23T04:56:34;94653.25;;;12.82;55.18
33191;BME280;19554;42.652;23.364;2023-04-23T04:59:00;94653.81;;;13.07;54.53
33191;BME280;19554;42.652;23.364;2023-04-23T05:01:27;94655.00;;;13.00;54.83
33191;BME280;19554;42.652;23.364;2023-04-23T05:03:54;94659.00;;;12.89;54.59
33191;BME280;19554;42.652;23.364;2023-04-23T05:06:19;94574.47;;;12.05;55.59
33191;BME280;19554;42.652;23.364;2023-04-23T05:08:45;94651.09;;;12.29;56.42
33191;BME280;19554;42.652;23.364;2023-04-23T05:11:16;94668.88;;;11.92;57.61
33191;BME280;19554;42.652;23.364;2023-04-23T05:13:43;94590.88;;;10.87;59.70
33191;BME280;19554;42.652;23.364;2023-04-23T05:16:08;94661.09;;;11.06;60.95
33191;BME280;19554;42.652;23.364;2023-04-23T05:18:37;94673.84;;;11.47;60.17
33191;BME280;19554;42.652;23.364;2023-04-23T05:21:02;94672.16;;;11.70;59.50
33191;BME280;19554;42.652;23.364;2023-04-23T05:23:27;94658.41;;;11.44;59.42
33191;BME280;19554;42.652;23.364;2023-04-23T05:25:53;94667.50;;;11.43;60.22
33191;BME280;19554;42.652;23.364;2023-04-23T05:28:20;94626.22;;;11.17;60.59
33191;BME280;19554;42.652;23.364;2023-04-23T05:30:45;94659.97;;;11.64;60.33
33191;BME280;19554;42.652;23.364;2023-04-23T05:33:11;94559.38;;;11.22;60.94
33191;BME280;19554;42.652;23.364;2023-04-23T05:35:36;94658.00;;;11.70;59.94
33191;BME280;19554;42.652;23.364;2023-04-23T05:38:02;94670.31;;;12.03;59.95
33191;BME280;19554;42.652;23.364;2023-04-23T05:40:29;94666.38;;;12.28;59.40
33191;BME280;19554;42.652;23.364;2023-04-23T05:42:57;94664.66;;;12.88;58.84
33191;BME280;19554;42.652;23.364;2023-04-23T05:45:22;94591.63;;;12.04;57.58
33191;BME280;19554;42.652;23.364;2023-04-23T05:47:48;94674.47;;;12.65;57.77
33191;BME280;19554;42.652;23.364;2023-04-23T05:50:13;94670.88;;;12.97;56.96
33191;BME280;19554;42.652;23.364;2023-04-23T05:52:39;94582.25;;;12.71;56.02
33191;BME280;19554;42.652;23.364;2023-04-23T05:55:05;94663.56;;;13.61;55.39
33191;BME280;19554;42.652;23.364;2023-04-23T05:57:32;94667.81;;;14.07;53.93
33191;BME280;19554;42.652;23.364;2023-04-23T05:59:57;94669.69;;;14.07;52.83
33191;BME280;19554;42.652;23.364;2023-04-23T06:02:23;94665.38;;;13.97;53.10
33191;BME280;19554;42.652;23.364;2023-04-23T06:04:49;94676.44;;;13.95;53.39
33191;BME280;19554;42.652;23.364;2023-04-23T06:07:14;94676.78;;;13.80;53.65
33191;BME280;19554;42.652;23.364;2023-04-23T06:09:40;94674.19;;;13.89;54.08
33191;BME280;19554;42.652;23.364;2023-04-23T06:12:05;94645.13;;;14.22;52.94
33191;BME280;19554;42.652;23.364;2023-04-23T06:14:31;94668.38;;;14.58;52.21
33191;BME280;19554;42.652;23.364;2023-04-23T06:16:56;94667.84;;;14.96;51.67
33191;BME280;19554;42.652;23.364;2023-04-23T06:19:22;94667.09;;;15.30;50.40
33191;BME280;19554;42.652;23.364;2023-04-23T06:21:50;94661.91;;;15.68;49.35
33191;BME280;19554;42.652;23.364;2023-04-23T06:24:16;94650.50;;;15.80;48.69
33191;BME280;19554;42.652;23.364;2023-04-23T06:26:41;94661.56;;;15.78;48.72
33191;BME280;19554;42.652;23.364;2023-04-23T06:29:07;94659.00;;;16.08;48.32
33191;BME280;19554;42.652;23.364;2023-04-23T06:31:32;94667.50;;;16.19;48.27
33191;BME280;19554;42.652;23.364;2023-04-23T06:33:57;94668.78;;;16.21;47.82
33191;BME280;19554;42.652;23.364;2023-04-23T06:36:23;94668.19;;;15.90;48.75
33191;BME280;19554;42.652;23.364;2023-04-23T06:38:48;94668.06;;;15.77;48.82
33191;BME280;19554;42.652;23.364;2023-04-23T06:41:14;94661.75;;;15.73;49.08
33191;BME280;19554;42.652;23.364;2023-04-23T06:43:40;94647.34;;;15.86;49.18
33191;BME280;19554;42.652;23.364;2023-04-23T06:46:06;94594.16;;;15.40;49.74
33191;BME280;19554;42.652;23.364;2023-04-23T06:48:31;94612.69;;;15.68;49.02
33191;BME280;19554;42.652;23.364;2023-04-23T06:50:57;94654.97;;;16.31;48.61
33191;BME280;19554;42.652;23.364;2023-04-23T06:53:23;94660.50;;;16.35;48.34
33191;BME280;19554;42.652;23.364;2023-04-23T06:55:49;94640.31;;;16.50;47.33
33191;BME280;19554;42.652;23.364;2023-04-23T06:58:18;94660.31;;;16.78;47.42
33191;BME280;19554;42.652;23.364;2023-04-23T07:00:43;94598.81;;;16.04;48.34
33191;BME280;19554;42.652;23.364;2023-04-23T07:03:09;94661.97;;;16.62;47.79
33191;BME280;19554;42.652;23.364;2023-04-23T07:05:35;94657.31;;;16.42;48.19
33191;BME280;19554;42.652;23.364;2023-04-23T07:08:00;94640.66;;;15.93;49.03
33191;BME280;19554;42.652;23.364;2023-04-23T07:10:26;94660.06;;;16.16;49.44
33191;BME280;19554;42.652;23.364;2023-04-23T07:12:51;94647.19;;;16.39;49.20
33191;BME280;19554;42.652;23.364;2023-04-23T07:15:16;94641.50;;;16.70;48.60
33191;BME280;19554;42.652;23.364;2023-04-23T07:17:42;94655.56;;;16.37;48.79
33191;BME280;19554;42.652;23.364;2023-04-23T07:20:07;94622.38;;;16.16;49.51
33191;BME280;19554;42.652;23.364;2023-04-23T07:22:33;94652.56;;;16.68;48.52
33191;BME280;19554;42.652;23.364;2023-04-23T07:25:02;94654.63;;;16.71;48.25
33191;BME280;19554;42.652;23.364;2023-04-23T07:27:29;94643.16;;;16.53;48.04
33191;BME280;19554;42.652;23.364;2023-04-23T07:29:55;94652.13;;;16.66;47.77
33191;BME280;19554;42.652;23.364;2023-04-23T07:32:20;94650.06;;;16.63;47.39
33191;BME280;19554;42.652;23.364;2023-04-23T07:34:48;94554.22;;;15.85;48.21
33191;BME280;19554;42.652;23.364;2023-04-23T07:37:13;94654.06;;;16.57;48.10
33191;BME280;19554;42.652;23.364;2023-04-23T07:39:38;94647.47;;;16.46;48.28
33191;BME280;19554;42.652;23.364;2023-04-23T07:42:04;94599.84;;;16.20;48.40
33191;BME280;19554;42.652;23.364;2023-04-23T07:44:29;94626.91;;;16.32;48.48
33191;BME280;19554;42.652;23.364;2023-04-23T07:46:55;94614.56;;;16.31;48.18
33191;BME280;19554;42.652;23.364;2023-04-23T07:49:20;94577.94;;;16.69;47.82
33191;BME280;19554;42.652;23.364;2023-04-23T07:51:47;94650.28;;;17.17;46.29
33191;BME280;19554;42.652;23.364;2023-04-23T07:54:12;94618.47;;;16.81;46.84
33191;BME280;19554;42.652;23.364;2023-04-23T07:56:38;94653.41;;;16.60;47.31
33191;BME280;19554;42.652;23.364;2023-04-23T07:59:03;94649.03;;;16.85;47.52
33191;BME280;19554;42.652;23.364;2023-04-23T08:01:31;94635.00;;;17.00;47.16
33191;BME280;19554;42.652;23.364;2023-04-23T08:03:57;94648.34;;;16.97;46.98
33191;BME280;19554;42.652;23.364;2023-04-23T08:06:24;94654.63;;;16.80;47.05
33191;BME280;19554;42.652;23.364;2023-04-23T08:08:51;94649.47;;;16.96;46.79
33191;BME280;19554;42.652;23.364;2023-04-23T08:11:17;94624.34;;;17.04;45.94
33191;BME280;19554;42.652;23.364;2023-04-23T08:13:42;94638.75;;;17.50;45.75
33191;BME280;19554;42.652;23.364;2023-04-23T08:16:08;94641.16;;;17.64;44.71
33191;BME280;19554;42.652;23.364;2023-04-23T08:18:33;94640.63;;;17.37;45.37
33191;BME280;19554;42.652;23.364;2023-04-23T08:20:59;94636.44;;;17.40;45.67
33191;BME280;19554;42.652;23.364;2023-04-23T08:23:25;94644.16;;;17.08;46.39
33191;BME280;19554;42.652;23.364;2023-04-23T08:25:51;94639.00;;;17.15;46.13
33191;BME280;19554;42.652;23.364;2023-04-23T08:28:17;94636.31;;;16.94;46.09
33191;BME280;19554;42.652;23.364;2023-04-23T08:30:42;94637.78;;;17.34;46.16
33191;BME280;19554;42.652;23.364;2023-04-23T08:33:08;94636.31;;;17.57;45.02
33191;BME280;19554;42.652;23.364;2023-04-23T08:35:33;94643.03;;;17.09;45.75
33191;BME280;19554;42.652;23.364;2023-04-23T08:37:59;94573.69;;;16.89;45.68
33191;BME280;19554;42.652;23.364;2023-04-23T08:40:28;94627.91;;;16.96;46.09
33191;BME280;19554;42.652;23.364;2023-04-23T08:43:01;94624.75;;;17.36;45.29
33191;BME280;19554;42.652;23.364;2023-04-23T08:45:28;94615.81;;;17.44;45.05
33191;BME280;19554;42.652;23.364;2023-04-23T08:47:58;94624.47;;;16.87;45.78
33191;BME280;19554;42.652;23.364;2023-04-23T08:50:24;94619.75;;;16.37;46.57
33191;BME280;19554;42.652;23.364;2023-04-23T08:52:52;94631.88;;;16.60;46.85
33191;BME280;19554;42.652;23.364;2023-04-23T08:55:19;94623.38;;;16.41;46.59
33191;BME280;19554;42.652;23.364;2023-04-23T08:57:45;94608.25;;;16.27;46.67
33191;BME280;19554;42.652;23.364;2023-04-23T09:00:13;94622.38;;;16.16;46.77
33191;BME280;19554;42.652;23.364;2023-04-23T09:02:40;94619.78;;;15.72;47.76
33191;BME280;19554;42.652;23.364;2023-04-23T09:05:06;94532.03;;;15.07;47.77
33191;BME280;19554;42.652;23.364;2023-04-23T09:07:33;94615.06;;;15.69;48.30
33191;BME280;19554;42.652;23.364;2023-04-23T09:10:01;94528.88;;;14.96;48.92
33191;BME280;19554;42.652;23.364;2023-04-23T09:12:27;94616.94;;;15.60;48.06
33191;BME280;19554;42.652;23.364;2023-04-23T09:14:52;94583.09;;;15.59;48.50
33191;BME280;19554;42.652;23.364;2023-04-23T09:17:18;94599.66;;;15.87;47.77
33191;BME280;19554;42.652;23.364;2023-04-23T09:19:44;94585.78;;;15.76;47.33
33191;BME280;19554;42.652;23.364;2023-04-23T09:22:13;94600.41;;;16.05;47.47
33191;BME280;19554;42.652;23.364;2023-04-23T09:24:41;94534.44;;;15.90;46.66
33191;BME280;19554;42.652;23.364;2023-04-23T09:27:10;94607.63;;;16.22;46.56
33191;BME280;19554;42.652;23.364;2023-04-23T09:29:35;94589.41;;;16.19;46.48
33191;BME280;19554;42.652;23.364;2023-04-23T09:32:08;94604.00;;;16.18;46.38
33191;BME280;19554;42.652;23.364;2023-04-23T09:34:35;94600.06;;;16.15;46.59
33191;BME280;19554;42.652;23.364;2023-04-23T09:37:04;94602.03;;;15.88;46.36
33191;BME280;19554;42.652;23.364;2023-04-23T09:39:33;94593.31;;;15.92;46.71
33191;BME280;19554;42.652;23.364;2023-04-23T09:42:03;94587.00;;;16.34;46.07
33191;BME280;19554;42.652;23.364;2023-04-23T09:44:32;94587.88;;;16.77;45.13
33191;BME280;19554;42.652;23.364;2023-04-23T09:47:08;94565.03;;;17.04;43.90
33191;BME280;19554;42.652;23.364;2023-04-23T09:49:47;94515.97;;;16.90;42.61
33191;BME280;19554;42.652;23.364;2023-04-23T09:52:13;94573.22;;;17.28;42.15
33191;BME280;19554;42.652;23.364;2023-04-23T09:54:38;94558.81;;;17.45;41.81
33191;BME280;19554;42.652;23.364;2023-04-23T09:57:04;94553.16;;;17.38;41.18
33191;BME280;19554;42.652;23.364;2023-04-23T09:59:33;94560.31;;;17.67;40.98
33191;BME280;19554;42.652;23.364;2023-04-23T10:02:05;94550.06;;;17.82;40.47
33191;BME280;19554;42.652;23.364;2023-04-23T10:04:31;94560.56;;;18.08;40.89
33191;BME280;19554;42.652;23.364;2023-04-23T10:07:02;94552.09;;;17.97;40.41
33191;BME280;19554;42.652;23.364;2023-04-23T10:09:29;94546.28;;;18.19;40.17
33191;BME280;19554;42.652;23.364;2023-04-23T10:11:59;94486.09;;;17.61;39.25
33191;BME280;19554;42.652;23.364;2023-04-23T10:14:27;94553.00;;;18.01;37.79
33191;BME280;19554;42.652;23.364;2023-04-23T10:17:00;94552.38;;;17.38;39.65
33191;BME280;19554;42.652;23.364;2023-04-23T10:19:27;94534.72;;;17.40;39.85
33191;BME280;19554;42.652;23.364;2023-04-23T10:22:04;94537.50;;;17.65;39.74
33191;BME280;19554;42.652;23.364;2023-04-23T10:24:34;94532.19;;;17.89;38.54
33191;BME280;19554;42.652;23.364;2023-04-23T10:27:03;94536.56;;;17.94;37.54
33191;BME280;19554;42.652;23.364;2023-04-23T10:29:31;94522.53;;;18.13;37.25
33191;BME280;19554;42.652;23.364;2023-04-23T10:32:02;94498.44;;;18.08;37.30
33191;BME280;19554;42.652;23.364;2023-04-23T10:34:29;94523.53;;;18.45;36.93
33191;BME280;19554;42.652;23.364;2023-04-23T10:36:56;94512.25;;;18.55;37.08
33191;BME280;19554;42.652;23.364;2023-04-23T10:39:26;94504.56;;;18.69;37.49
33191;BME280;19554;42.652;23.364;2023-04-23T10:41:53;94514.06;;;18.63;37.22
33191;BME280;19554;42.652;23.364;2023-04-23T10:44:19;94486.38;;;18.17;37.08
33191;BME280;19554;42.652;23.364;2023-04-23T10:46:55;94513.28;;;18.14;37.28
33191;BME280;19554;42.652;23.364;2023-04-23T10:49:23;94507.31;;;18.20;36.15
33191;BME280;19554;42.652;23.364;2023-04-23T10:51:57;94508.91;;;18.21;35.86
33191;BME280;19554;42.652;23.364;2023-04-23T10:54:27;94506.63;;;18.36;34.65
33191;BME280;19554;42.652;23.364;2023-04-23T10:56:58;94496.72;;;18.52;35.36
33191;BME280;19554;42.652;23.364;2023-04-23T10:59:24;94487.72;;;18.36;35.58
33191;BME280;19554;42.652;23.364;2023-04-23T11:01:49;94495.28;;;18.30;35.83
33191;BME280;19554;42.652;23.364;2023-04-23T11:04:28;94446.09;;;18.12;35.75
33191;BME280;19554;42.652;23.364;2023-04-23T11:06:55;94482.09;;;18.41;35.51
33191;BME280;19554;42.652;23.364;2023-04-23T11:11:53;94490.94;;;18.66;34.71
33191;BME280;19554;42.652;23.364;2023-04-23T11:14:19;94475.50;;;18.79;33.55
33191;BME280;19554;42.652;23.364;2023-04-23T11:16:44;94469.28;;;18.90;34.16
33191;BME280;19554;42.652;23.364;2023-04-23T11:19:12;94467.91;;;18.44;35.71
33191;BME280;19554;42.652;23.364;2023-04-23T11:24:43;94479.06;;;18.30;34.76
33191;BME280;19554;42.652;23.364;2023-04-23T11:27:12;94463.22;;;18.16;34.74
33191;BME280;19554;42.652;23.364;2023-04-23T11:29:39;94456.88;;;18.37;33.71
33191;BME280;19554;42.652;23.364;2023-04-23T11:32:05;94454.19;;;18.37;34.68
33191;BME280;19554;42.652;23.364;2023-04-23T11:34:36;94375.88;;;17.88;35.20
33191;BME280;19554;42.652;23.364;2023-04-23T11:37:02;94404.38;;;17.85;35.50
33191;BME280;19554;42.652;23.364;2023-04-23T11:39:27;94453.88;;;18.14;34.66
33191;BME280;19554;42.652;23.364;2023-04-23T11:41:53;94445.66;;;18.22;34.30
33191;BME280;19554;42.652;23.364;2023-04-23T11:44:19;94446.75;;;18.21;33.39
33191;BME280;19554;42.652;23.364;2023-04-23T11:46:46;94433.81;;;18.39;33.09
33191;BME280;19554;42.652;23.364;2023-04-23T11:49:13;94439.03;;;18.60;33.63
33191;BME280;19554;42.652;23.364;2023-04-23T11:51:47;94432.72;;;18.81;33.86
33191;BME280;19554;42.652;23.364;2023-04-23T11:54:12;94436.94;;;18.94;33.64
33191;BME280;19554;42.652;23.364;2023-04-23T11:56:39;94430.59;;;19.02;32.77
33191;BME280;19554;42.652;23.364;2023-04-23T11:59:05;94423.44;;;19.10;32.34
33191;BME280;19554;42.652;23.364;2023-04-23T12:04:10;94422.34;;;18.70;30.98
33191;BME280;19554;42.652;23.364;2023-04-23T12:06:37;94344.47;;;18.20;31.22
33191;BME280;19554;42.652;23.364;2023-04-23T12:09:02;94414.19;;;18.83;31.27
33191;BME280;19554;42.652;23.364;2023-04-23T12:11:27;94422.63;;;18.53;30.90
33191;BME280;19554;42.652;23.364;2023-04-23T12:13:53;94415.25;;;18.66;30.49
33191;BME280;19554;42.652;23.364;2023-04-23T12:16:32;94423.25;;;18.75;30.47
33191;BME280;19554;42.652;23.364;2023-04-23T12:18:59;94415.31;;;18.94;30.52
33191;BME280;19554;42.652;23.364;2023-04-23T12:21:25;94411.94;;;18.85;29.11
33191;BME280;19554;42.652;23.364;2023-04-23T12:23:52;94359.59;;;18.37;28.94
33191;BME280;19554;42.652;23.364;2023-04-23T12:26:18;94413.13;;;18.72;28.86
33191;BME280;19554;42.652;23.364;2023-04-23T12:28:51;94405.00;;;18.59;29.22
33191;BME280;19554;42.652;23.364;2023-04-23T12:31:22;94391.59;;;18.63;29.27
33191;BME280;19554;42.652;23.364;2023-04-23T12:33:55;94400.09;;;18.49;30.42
33191;BME280;19554;42.652;23.364;2023-04-23T12:36:26;94357.84;;;18.16;30.64
33191;BME280;19554;42.652;23.364;2023-04-23T12:38:51;94401.03;;;18.41;30.19
33191;BME280;19554;42.652;23.364;2023-04-23T12:41:16;94402.44;;;18.22;30.26
33191;BME280;19554;42.652;23.364;2023-04-23T12:43:42;94410.44;;;18.07;30.69
33191;BME280;19554;42.652;23.364;2023-04-23T12:46:12;94367.25;;;17.82;30.22
33191;BME280;19554;42.652;23.364;2023-04-23T12:48:38;94392.75;;;18.09;30.25
33191;BME280;19554;42.652;23.364;2023-04-23T12:51:03;94394.13;;;18.03;30.23
33191;BME280;19554;42.652;23.364;2023-04-23T12:53:30;94369.81;;;17.91;29.54
33191;BME280;19554;42.652;23.364;2023-04-23T12:55:56;94398.59;;;18.11;30.15